Time;durP1;ratioP1;P1;durP2;ratioP2;P2;SDS_P1;SDS_P2;PMS_P1;PMS_P2;Temp;Humidity;BMP_temperature;BMP_pressure;BME280_temperature;BME280_humidity;BME280_pressure;Samples;Min_cycle;Max_cycle;Signal;HPM_P1;HPM_P2
2023/12/11 00:01:54;;;;;;;52.85;18.42;;;;;;;2.58;100.00;97582.50;5126472;27;20084;-77
2023/12/11 00:04:20;;;;;;;62.08;19.38;;;;;;;2.72;100.00;97585.59;5100304;27;20033;-77
2023/12/11 00:06:45;;;;;;;63.35;19.90;;;;;;;2.80;100.00;97581.84;5101740;28;20027;-77
2023/12/11 00:09:11;;;;;;;58.80;19.77;;;;;;;2.70;100.00;97581.25;5102258;28;20023;-77
2023/12/11 00:11:37;;;;;;;66.72;21.98;;;;;;;2.72;100.00;97580.31;5102348;28;20035;-77
2023/12/11 00:14:02;;;;;;;63.90;20.83;;;;;;;2.81;100.00;97588.84;5125413;27;20027;-77
2023/12/11 00:16:28;;;;;;;58.65;20.85;;;;;;;2.67;100.00;97592.78;5111318;27;20030;-76
2023/12/11 00:18:54;;;;;;;61.60;19.58;;;;;;;2.51;100.00;97586.22;5130407;27;20509;-76
2023/12/11 00:21:19;;;;;;;72.28;23.33;;;;;;;2.52;100.00;97598.50;5117600;27;20054;-76
2023/12/11 00:23:45;;;;;;;65.80;21.20;;;;;;;2.32;100.00;97592.94;5114191;27;20109;-76
2023/12/11 00:26:10;;;;;;;59.22;21.40;;;;;;;2.33;100.00;97607.00;5122485;27;20035;-77
2023/12/11 00:28:36;;;;;;;58.30;20.85;;;;;;;2.27;100.00;97612.47;5128689;27;20023;-76
2023/12/11 00:31:06;;;;;;;67.95;22.40;;;;;;;2.29;100.00;97610.63;5104546;27;20061;-76
2023/12/11 00:36:15;;;;;;;60.95;20.10;;;;;;;2.46;100.00;97625.06;5122842;27;20034;-76
2023/12/11 00:38:41;;;;;;;64.15;21.17;;;;;;;2.41;100.00;97611.16;5111103;27;20035;-76
2023/12/11 00:41:07;;;;;;;65.22;21.02;;;;;;;2.50;100.00;97615.28;5111886;27;20016;-76
2023/12/11 00:43:33;;;;;;;65.25;20.77;;;;;;;2.59;100.00;97607.09;5111759;27;20059;-76
2023/12/11 00:45:58;;;;;;;69.90;22.70;;;;;;;2.42;100.00;97602.34;5117311;27;20023;-78
2023/12/11 00:48:24;;;;;;;63.35;20.88;;;;;;;2.56;100.00;97609.84;5100044;27;20027;-77
2023/12/11 00:50:49;;;;;;;68.07;21.88;;;;;;;2.72;100.00;97621.69;5108459;28;20023;-77
2023/12/11 00:53:15;;;;;;;63.10;21.80;;;;;;;2.77;100.00;97613.63;5106959;27;20438;-77
2023/12/11 00:55:41;;;;;;;68.05;22.55;;;;;;;2.82;100.00;97617.84;5118573;27;20158;-76
2023/12/11 00:58:06;;;;;;;64.72;19.95;;;;;;;2.86;100.00;97621.28;5097388;27;20070;-75
2023/12/11 01:00:32;;;;;;;63.58;19.95;;;;;;;2.64;100.00;97616.63;5118711;27;20038;-76
2023/12/11 01:02:58;;;;;;;72.95;21.00;;;;;;;2.83;100.00;97621.38;5097302;28;20035;-77
2023/12/11 01:05:23;;;;;;;68.43;21.02;;;;;;;2.95;100.00;97623.63;5120592;27;20066;-76
2023/12/11 01:07:49;;;;;;;56.72;19.80;;;;;;;2.99;100.00;97619.97;5113345;28;20062;-76
2023/12/11 01:10:15;;;;;;;68.55;21.48;;;;;;;2.87;100.00;97615.06;5125142;28;20029;-75
2023/12/11 01:12:42;;;;;;;60.97;19.85;;;;;;;2.93;100.00;97614.88;5101126;28;20027;-76
2023/12/11 01:15:08;;;;;;;62.83;21.13;;;;;;;2.97;100.00;97616.53;5109325;28;20404;-77
2023/12/11 01:17:34;;;;;;;66.43;20.08;;;;;;;3.00;100.00;97616.41;5096242;28;20031;-77
2023/12/11 01:19:59;;;;;;;62.10;19.77;;;;;;;3.01;100.00;97613.75;5115022;28;20058;-77
2023/12/11 01:22:25;;;;;;;56.65;18.23;;;;;;;2.95;100.00;97611.31;5124565;28;20031;-77
2023/12/11 01:24:51;;;;;;;64.03;18.15;;;;;;;3.00;100.00;97605.84;5120442;28;20492;-76
2023/12/11 01:27:16;;;;;;;65.47;20.05;;;;;;;3.00;100.00;97600.56;5122897;28;20033;-76
2023/12/11 01:29:42;;;;;;;63.83;19.83;;;;;;;2.76;100.00;97596.03;5115831;27;20027;-77
2023/12/11 01:32:07;;;;;;;64.78;19.30;;;;;;;2.83;100.00;97613.44;5104665;28;20107;-77
2023/12/11 01:34:33;;;;;;;64.60;21.35;;;;;;;2.78;100.00;97621.50;5101163;28;20054;-76
2023/12/11 01:36:59;;;;;;;72.68;21.55;;;;;;;2.78;100.00;97620.63;5126594;28;20049;-76
2023/12/11 01:39:24;;;;;;;71.03;19.70;;;;;;;2.77;100.00;97613.63;5106509;28;20474;-76
2023/12/11 01:41:50;;;;;;;72.68;22.50;;;;;;;2.83;100.00;97624.00;5121465;28;20070;-77
2023/12/11 01:44:16;;;;;;;70.22;20.23;;;;;;;2.70;100.00;97608.53;5124758;28;20133;-76
2023/12/11 01:46:41;;;;;;;64.32;20.08;;;;;;;2.86;100.00;97616.84;5094635;28;20031;-76
2023/12/11 01:49:08;;;;;;;69.07;20.38;;;;;;;2.78;100.00;97610.06;5111483;28;20031;-76
2023/12/11 01:51:33;;;;;;;68.40;21.50;;;;;;;2.63;100.00;97614.03;5105067;28;20027;-76
2023/12/11 01:53:59;;;;;;;73.18;22.50;;;;;;;2.31;100.00;97614.94;5126216;28;20035;-76
2023/12/11 01:56:25;;;;;;;68.22;20.58;;;;;;;2.16;100.00;97610.97;5109908;28;20097;-76
2023/12/11 01:58:51;;;;;;;74.88;20.88;;;;;;;2.11;100.00;97612.88;5112547;28;20413;-75
2023/12/11 02:01:19;;;;;;;67.30;20.00;;;;;;;2.20;100.00;97606.47;5110147;28;20030;-77
2023/12/11 02:03:45;;;;;;;78.45;21.98;;;;;;;2.39;100.00;97605.06;5096600;28;20032;-77
2023/12/11 02:06:10;;;;;;;78.43;22.33;;;;;;;2.44;100.00;97610.19;5121830;27;20412;-77
2023/12/11 02:08:36;;;;;;;63.95;20.08;;;;;;;2.46;100.00;97613.69;5113750;28;20031;-78
2023/12/11 02:11:03;;;;;;;67.53;20.25;;;;;;;2.41;100.00;97610.28;5109134;28;20028;-78
2023/12/11 02:13:29;;;;;;;78.82;23.15;;;;;;;2.22;100.00;97609.06;5095461;28;20028;-77
2023/12/11 02:15:56;;;;;;;78.00;22.48;;;;;;;2.03;100.00;97611.38;5127483;28;20478;-77
2023/12/11 02:18:22;;;;;;;78.85;21.60;;;;;;;1.81;100.00;97608.44;5096214;28;20034;-77
2023/12/11 02:20:47;;;;;;;76.28;20.75;;;;;;;1.73;100.00;97604.25;5095228;28;20036;-77
2023/12/11 02:23:37;;;;;;;76.15;19.55;;;;;;;1.77;100.00;97609.44;5096043;28;20100;-78
2023/12/11 02:26:03;;;;;;;88.47;20.52;;;;;;;2.08;100.00;97627.94;5123743;27;20032;-78
2023/12/11 02:28:28;;;;;;;109.43;18.92;;;;;;;2.16;100.00;97626.81;5114152;28;20374;-77
2023/12/11 02:30:54;;;;;;;72.10;19.15;;;;;;;2.22;100.00;97617.84;5096657;27;20410;-76
2023/12/11 02:33:20;;;;;;;120.43;21.13;;;;;;;1.84;100.00;97612.78;5124685;27;20118;-78
2023/12/11 02:35:45;;;;;;;165.55;24.95;;;;;;;1.79;100.00;97610.25;5106419;27;20555;-75
2023/12/11 02:38:11;;;;;;;73.95;21.67;;;;;;;1.81;100.00;97616.38;5114206;27;20034;-76
2023/12/11 02:40:37;;;;;;;143.52;21.73;;;;;;;1.53;100.00;97581.94;5114295;28;20069;-76
2023/12/11 02:43:02;;;;;;;148.43;22.50;;;;;;;1.59;100.00;97586.19;5115042;27;20378;-76
2023/12/11 02:45:28;;;;;;;97.53;20.67;;;;;;;1.47;100.00;97581.25;5102330;27;20033;-76
2023/12/11 02:48:02;;;;;;;93.15;22.02;;;;;;;1.48;100.00;97604.03;5114147;27;20026;-76
2023/12/11 02:50:31;;;;;;;91.30;19.42;;;;;;;1.40;100.00;97600.72;5109980;27;20031;-76
2023/12/11 02:53:01;;;;;;;112.13;20.95;;;;;;;1.51;100.00;97615.34;5100827;28;20062;-77
2023/12/11 02:55:27;;;;;;;96.68;19.38;;;;;;;1.66;100.00;97614.13;5113785;27;20028;-76
2023/12/11 02:57:57;;;;;;;122.03;19.90;;;;;;;1.85;100.00;97614.47;5109153;27;20060;-76
2023/12/11 03:00:22;;;;;;;84.32;22.23;;;;;;;1.85;100.00;97615.34;5100608;27;20035;-76
2023/12/11 03:02:48;;;;;;;99.60;22.13;;;;;;;1.89;100.00;97622.28;5116685;27;20028;-76
2023/12/11 03:05:13;;;;;;;67.35;20.83;;;;;;;2.08;100.00;97622.66;5097706;27;20115;-76
2023/12/11 03:07:39;;;;;;;84.38;20.35;;;;;;;2.17;100.00;97632.97;5127793;27;20031;-76
2023/12/11 03:10:05;;;;;;;92.22;20.52;;;;;;;2.12;100.00;97626.94;5114578;27;20040;-77
2023/12/11 03:12:31;;;;;;;81.97;20.05;;;;;;;2.16;100.00;97618.91;5104937;28;20028;-77
2023/12/11 03:14:57;;;;;;;160.43;21.95;;;;;;;2.28;100.00;97624.75;5121571;27;20493;-77
2023/12/11 03:17:25;;;;;;;69.82;18.40;;;;;;;2.16;100.00;97620.66;5106885;27;20122;-77
2023/12/11 03:19:52;;;;;;;145.40;20.48;;;;;;;2.03;100.00;97624.56;5126554;27;20055;-76
2023/12/11 03:22:18;;;;;;;79.78;19.05;;;;;;;1.91;100.00;97617.81;5120455;27;20035;-77
2023/12/11 03:24:46;;;;;;;85.32;19.15;;;;;;;2.04;100.00;97628.91;5120591;27;20100;-78
2023/12/11 03:27:15;;;;;;;56.20;17.58;;;;;;;2.13;100.00;97631.31;5105461;27;20031;-77
2023/12/11 03:29:41;;;;;;;92.53;20.27;;;;;;;2.13;100.00;97615.47;5132303;27;20098;-77
2023/12/11 03:32:07;;;;;;;83.65;18.70;;;;;;;2.16;100.00;97639.13;5123988;27;20080;-77
2023/12/11 03:34:33;;;;;;;136.32;21.38;;;;;;;1.85;100.00;97625.03;5122930;27;20034;-77
2023/12/11 03:36:59;;;;;;;62.85;18.90;;;;;;;1.68;100.00;97625.50;5106500;27;20062;-78
2023/12/11 03:39:25;;;;;;;57.63;16.73;;;;;;;1.88;100.00;97635.50;5112853;27;20023;-77
2023/12/11 03:41:51;;;;;;;67.55;18.30;;;;;;;1.87;100.00;97623.25;5117170;27;20089;-76
2023/12/11 03:44:17;;;;;;;74.03;20.40;;;;;;;2.04;100.00;97621.00;5123377;27;20054;-75
2023/12/11 03:46:45;;;;;;;102.25;21.77;;;;;;;1.75;100.00;97611.25;5108156;28;20024;-77
2023/12/11 03:49:11;;;;;;;70.70;19.75;;;;;;;1.99;100.00;97625.53;5126360;27;20359;-76
2023/12/11 03:51:36;;;;;;;72.93;20.80;;;;;;;1.98;100.00;97610.63;5107574;27;20023;-75
2023/12/11 03:54:02;;;;;;;70.15;19.40;;;;;;;1.62;100.00;97596.66;5113435;27;20072;-76
2023/12/11 03:56:28;;;;;;;163.90;18.05;;;;;;;1.68;100.00;97592.97;5102735;28;20022;-76
2023/12/11 03:58:56;;;;;;;124.40;18.98;;;;;;;1.61;100.00;97573.81;5102723;28;20032;-77
2023/12/11 04:01:25;;;;;;;110.68;16.98;;;;;;;1.30;100.00;97584.28;5111185;27;20442;-78
2023/12/11 04:03:50;;;;;;;155.27;19.02;;;;;;;1.29;100.00;97574.66;5103345;28;20034;-76
2023/12/11 04:06:16;;;;;;;60.20;17.08;;;;;;;1.54;100.00;97575.75;5111312;28;20479;-76
2023/12/11 04:08:42;;;;;;;72.70;17.55;;;;;;;1.69;100.00;97579.78;5105640;27;20114;-77
2023/12/11 04:11:08;;;;;;;68.10;16.38;;;;;;;1.53;100.00;97576.69;5114254;27;20105;-78
2023/12/11 04:13:34;;;;;;;104.95;18.30;;;;;;;1.70;100.00;97586.75;5097009;27;20023;-78
2023/12/11 04:16:00;;;;;;;83.85;16.90;;;;;;;1.83;100.00;97575.00;5131445;27;20026;-76
2023/12/11 04:18:25;;;;;;;75.63;16.67;;;;;;;1.96;100.00;97583.44;5114697;27;20050;-78
2023/12/11 04:20:51;;;;;;;63.38;17.80;;;;;;;1.93;100.00;97584.38;5119433;27;20028;-77
2023/12/11 04:23:16;;;;;;;109.13;17.17;;;;;;;1.84;100.00;97597.81;5119037;27;20027;-76
2023/12/11 04:25:42;;;;;;;68.57;15.68;;;;;;;1.81;100.00;97594.41;5093448;28;20038;-77
2023/12/11 04:28:07;;;;;;;70.10;17.05;;;;;;;2.00;100.00;97607.03;5102268;28;20131;-77
2023/12/11 04:30:34;;;;;;;78.38;16.35;;;;;;;1.95;100.00;97608.94;5101662;27;20023;-76
2023/12/11 04:32:59;;;;;;;63.80;17.95;;;;;;;2.02;100.00;97607.88;5115855;27;20080;-73
2023/12/11 04:35:25;;;;;;;81.70;18.92;;;;;;;1.92;100.00;97616.06;5113508;27;20023;-75
2023/12/11 04:37:50;;;;;;;109.63;23.85;;;;;;;1.86;100.00;97619.72;5121817;27;20050;-73
2023/12/11 04:40:16;;;;;;;95.05;22.35;;;;;;;1.85;100.00;97619.75;5130609;27;20029;-74
2023/12/11 04:42:42;;;;;;;82.68;20.25;;;;;;;2.06;100.00;97627.97;5121967;27;20487;-75
2023/12/11 04:45:08;;;;;;;132.38;20.92;;;;;;;2.19;100.00;97631.13;5099350;28;20032;-75
2023/12/11 04:47:33;;;;;;;137.60;19.85;;;;;;;2.03;100.00;97616.66;5118706;27;20031;-74
2023/12/11 04:49:59;;;;;;;139.02;20.70;;;;;;;1.97;100.00;97619.47;5122270;27;20383;-74
2023/12/11 04:52:24;;;;;;;124.57;18.20;;;;;;;1.90;100.00;97617.88;5112473;27;20110;-79
2023/12/11 04:54:50;;;;;;;172.43;22.17;;;;;;;1.55;100.00;97595.06;5119307;27;20031;-75
2023/12/11 04:57:16;;;;;;;78.35;18.88;;;;;;;1.58;100.00;97610.81;5116566;27;20126;-74
2023/12/11 04:59:41;;;;;;;102.28;17.80;;;;;;;1.31;100.00;97614.13;5103431;27;20528;-77
2023/12/11 05:02:07;;;;;;;98.43;18.42;;;;;;;1.25;100.00;97606.38;5105993;28;20107;-74
2023/12/11 05:04:33;;;;;;;130.63;19.40;;;;;;;1.19;100.00;97610.03;5110230;28;20029;-75
2023/12/11 05:06:59;;;;;;;89.57;19.33;;;;;;;1.15;100.00;97616.25;5097466;27;20402;-74
2023/12/11 05:09:24;;;;;;;130.50;17.75;;;;;;;1.15;100.00;97616.25;5126378;27;20022;-75
2023/12/11 05:11:50;;;;;;;149.88;19.30;;;;;;;1.00;100.00;97617.50;5130207;27;20110;-74
2023/12/11 05:14:16;;;;;;;190.20;28.15;;;;;;;0.98;100.00;97600.88;5098965;28;20115;-75
2023/12/11 05:16:49;;;;;;;138.45;20.67;;;;;;;0.96;100.00;97599.16;5118176;28;20027;-76
2023/12/11 05:19:14;;;;;;;172.60;20.23;;;;;;;0.89;100.00;97592.34;5098241;28;20033;-74
2023/12/11 05:21:46;;;;;;;110.90;18.92;;;;;;;0.88;100.00;97606.38;5112373;28;20122;-74
2023/12/11 05:24:12;;;;;;;115.30;19.65;;;;;;;0.96;100.00;97620.22;5106073;28;20015;-75
2023/12/11 05:26:37;;;;;;;103.13;20.88;;;;;;;1.25;100.00;97614.28;5104326;28;20113;-75
2023/12/11 05:29:04;;;;;;;93.97;21.63;;;;;;;1.43;100.00;97621.72;5112960;28;20204;-75
2023/12/11 05:31:33;;;;;;;106.05;21.33;;;;;;;1.53;100.00;97608.31;5097285;28;20019;-75
2023/12/11 05:33:59;;;;;;;77.28;17.80;;;;;;;1.38;100.00;97615.72;5100885;28;20398;-75
2023/12/11 05:36:24;;;;;;;64.85;16.92;;;;;;;1.46;100.00;97616.38;5118195;28;20098;-75
2023/12/11 05:38:50;;;;;;;83.88;27.63;;;;;;;1.61;100.00;97616.88;5100715;28;20128;-74
2023/12/11 05:41:18;;;;;;;93.65;25.13;;;;;;;1.59;100.00;97615.19;5109537;28;20022;-76
2023/12/11 05:43:43;;;;;;;155.00;30.92;;;;;;;1.66;100.00;97600.06;5092138;28;20023;-75
2023/12/11 05:46:10;;;;;;;95.15;17.27;;;;;;;1.54;100.00;97609.13;5096629;28;20497;-74
2023/12/11 05:48:35;;;;;;;86.60;17.98;;;;;;;1.58;100.00;97618.72;5105329;28;20103;-74
2023/12/11 05:51:01;;;;;;;90.05;20.13;;;;;;;1.52;100.00;97622.38;5111857;28;20121;-75
2023/12/11 05:53:27;;;;;;;115.95;17.73;;;;;;;1.59;100.00;97615.19;5112795;28;20038;-75
2023/12/11 05:55:52;;;;;;;138.15;17.88;;;;;;;1.43;100.00;97622.59;5094204;28;20019;-74
2023/12/11 05:58:18;;;;;;;84.10;19.33;;;;;;;1.51;100.00;97620.63;5102255;28;20036;-75
2023/12/11 06:00:44;;;;;;;61.85;17.48;;;;;;;1.38;100.00;97608.69;5113493;28;20038;-75
2023/12/11 06:03:10;;;;;;;71.70;17.35;;;;;;;1.46;100.00;97619.88;5099969;27;20144;-76
2023/12/11 06:05:36;;;;;;;94.30;25.13;;;;;;;1.40;100.00;97601.59;5116414;27;20130;-75
2023/12/11 06:08:02;;;;;;;68.60;16.50;;;;;;;1.55;100.00;97629.31;5105422;28;20035;-75
2023/12/11 06:10:28;;;;;;;77.10;17.27;;;;;;;1.78;100.00;97649.84;5104625;28;20023;-75
2023/12/11 06:12:53;;;;;;;78.60;21.75;;;;;;;1.94;100.00;97661.75;5121637;27;20027;-75
2023/12/11 06:15:19;;;;;;;146.15;23.00;;;;;;;1.98;100.00;97669.50;5118805;27;20105;-75
2023/12/11 06:17:45;;;;;;;120.38;20.02;;;;;;;2.06;100.00;97658.78;5125177;27;20035;-75
2023/12/11 06:20:11;;;;;;;162.98;67.68;;;;;;;2.21;100.00;97666.28;5107514;27;20046;-75
2023/12/11 06:22:37;;;;;;;96.38;23.85;;;;;;;2.03;100.00;97640.38;5120118;27;20058;-76
2023/12/11 06:25:03;;;;;;;126.65;20.33;;;;;;;1.79;100.00;97647.16;5114250;27;20069;-75
2023/12/11 06:27:29;;;;;;;131.75;24.05;;;;;;;1.56;100.00;97650.41;5109289;27;20555;-74
2023/12/11 06:29:55;;;;;;;132.95;21.30;;;;;;;1.52;100.00;97648.72;5111869;27;20088;-74
2023/12/11 06:32:21;;;;;;;143.80;33.97;;;;;;;1.33;100.00;97650.06;5124585;27;20437;-75
2023/12/11 06:34:47;;;;;;;190.23;41.75;;;;;;;1.23;100.00;97639.81;5107568;27;20039;-74
2023/12/11 06:37:12;;;;;;;69.68;20.15;;;;;;;1.16;100.00;97639.09;5107197;27;20058;-75
2023/12/11 06:39:38;;;;;;;93.68;23.15;;;;;;;1.23;100.00;97640.66;5109086;28;20023;-75
2023/12/11 06:42:04;;;;;;;93.78;21.75;;;;;;;1.25;100.00;97644.13;5104343;28;20031;-74
2023/12/11 06:44:29;;;;;;;62.85;18.98;;;;;;;1.34;100.00;97649.19;5108640;27;20027;-75
2023/12/11 06:46:56;;;;;;;67.68;16.00;;;;;;;1.36;100.00;97659.66;5107228;27;20034;-74
2023/12/11 06:49:22;;;;;;;76.03;16.77;;;;;;;1.39;100.00;97660.47;5116234;27;20015;-75
2023/12/11 06:51:48;;;;;;;65.22;16.33;;;;;;;1.47;100.00;97648.00;5110698;27;20109;-74
2023/12/11 06:54:14;;;;;;;67.13;16.05;;;;;;;1.59;100.00;97650.31;5108939;28;20032;-74
2023/12/11 06:56:40;;;;;;;45.75;15.93;;;;;;;1.34;100.00;97632.50;5103169;28;20127;-74
2023/12/11 06:59:05;;;;;;;52.15;14.27;;;;;;;1.51;100.00;97641.72;5117530;27;20023;-74
2023/12/11 07:01:33;;;;;;;65.53;16.67;;;;;;;1.73;100.00;97656.97;5111539;27;20079;-73
2023/12/11 07:03:59;;;;;;;50.95;15.98;;;;;;;1.70;100.00;97662.34;5115794;27;20050;-73
2023/12/11 07:06:24;;;;;;;89.82;16.20;;;;;;;1.22;100.00;97659.13;5099314;27;20066;-75
2023/12/11 07:08:50;;;;;;;69.20;17.33;;;;;;;1.31;100.00;97651.88;5116196;27;20483;-74
2023/12/11 07:11:17;;;;;;;72.28;17.13;;;;;;;1.33;100.00;97657.97;5103317;27;20027;-75
2023/12/11 07:13:42;;;;;;;57.65;17.92;;;;;;;1.74;100.00;97661.38;5110796;28;20461;-75
2023/12/11 07:16:12;;;;;;;42.38;16.15;;;;;;;2.03;100.00;97658.84;5111263;27;20099;-74
2023/12/11 07:18:38;;;;;;;65.68;16.15;;;;;;;2.30;100.00;97676.56;5114850;27;20406;-74
2023/12/11 07:21:10;;;;;;;54.78;17.10;;;;;;;2.22;100.00;97673.25;5124794;27;20055;-75
2023/12/11 07:23:36;;;;;;;51.53;17.13;;;;;;;2.20;100.00;97664.53;5097884;27;20493;-75
2023/12/11 07:26:04;;;;;;;81.82;15.80;;;;;;;2.15;100.00;97661.16;5123688;27;20034;-75
2023/12/11 07:28:29;;;;;;;62.80;16.85;;;;;;;2.06;100.00;97651.69;5128339;27;20055;-75
2023/12/11 07:30:58;;;;;;;54.50;16.00;;;;;;;2.20;100.00;97659.25;5102637;28;20438;-75
2023/12/11 07:33:24;;;;;;;61.60;16.45;;;;;;;2.15;100.00;97664.63;5127971;27;20027;-75
2023/12/11 07:35:49;;;;;;;60.50;20.15;;;;;;;1.82;100.00;97651.47;5114778;27;20034;-75
2023/12/11 07:38:15;;;;;;;44.42;16.70;;;;;;;1.72;100.00;97650.00;5114574;27;20035;-76
2023/12/11 07:40:40;;;;;;;72.82;18.00;;;;;;;1.81;100.00;97661.19;5114719;27;20019;-75
2023/12/11 07:43:07;;;;;;;53.85;18.33;;;;;;;2.22;100.00;97662.72;5114434;27;20023;-75
2023/12/11 07:45:34;;;;;;;43.58;16.83;;;;;;;2.43;100.00;97670.03;5111792;27;20020;-75
2023/12/11 07:48:00;;;;;;;55.35;18.15;;;;;;;2.41;100.00;97674.50;5094071;28;20035;-75
2023/12/11 07:50:25;;;;;;;45.90;17.33;;;;;;;2.26;100.00;97674.91;5103844;27;20562;-76
2023/12/11 07:52:51;;;;;;;51.65;17.55;;;;;;;2.79;100.00;97685.75;5117341;27;20490;-75
2023/12/11 07:55:16;;;;;;;73.00;23.02;;;;;;;3.07;100.00;97684.03;5097657;28;20425;-75
2023/12/11 07:57:42;;;;;;;69.13;21.65;;;;;;;3.26;100.00;97685.19;5093317;28;20403;-76
2023/12/11 08:00:09;;;;;;;70.25;24.98;;;;;;;2.94;100.00;97675.59;5102243;27;20054;-76
2023/12/11 08:02:35;;;;;;;59.50;22.00;;;;;;;3.00;100.00;97683.34;5113882;27;20037;-73
2023/12/11 08:05:01;;;;;;;90.43;23.83;;;;;;;3.09;100.00;97680.41;5112894;27;20019;-73
2023/12/11 08:07:26;;;;;;;65.78;24.30;;;;;;;2.77;100.00;97679.66;5131226;27;20042;-75
2023/12/11 08:09:52;;;;;;;101.35;31.88;;;;;;;2.31;100.00;97688.84;5105739;27;20023;-75
2023/12/11 08:12:18;;;;;;;85.05;26.90;;;;;;;2.73;100.00;97687.66;5105673;27;20110;-74
2023/12/11 08:14:44;;;;;;;70.13;25.05;;;;;;;3.09;100.00;97674.25;5096846;27;20106;-74
2023/12/11 08:17:10;;;;;;;83.25;29.20;;;;;;;3.08;100.00;97688.38;5093467;28;20034;-75
2023/12/11 08:19:36;;;;;;;86.22;26.77;;;;;;;2.53;100.00;97668.88;5111742;27;20027;-73
2023/12/11 08:22:02;;;;;;;83.72;25.88;;;;;;;2.35;100.00;97669.38;5113831;27;20095;-75
2023/12/11 08:24:27;;;;;;;77.93;25.65;;;;;;;2.48;100.00;97686.63;5105160;27;20031;-74
2023/12/11 08:26:53;;;;;;;86.45;25.90;;;;;;;2.32;100.00;97684.44;5113637;27;20076;-74
2023/12/11 08:29:21;;;;;;;62.90;23.58;;;;;;;2.36;100.00;97694.00;5113171;27;20023;-75
2023/12/11 08:31:47;;;;;;;72.88;24.65;;;;;;;2.83;100.00;97679.47;5125306;27;20486;-75
2023/12/11 08:34:13;;;;;;;71.45;24.75;;;;;;;3.29;100.00;97677.19;5108153;27;20062;-75
2023/12/11 08:36:38;;;;;;;66.72;24.48;;;;;;;3.60;100.00;97677.91;5110510;27;20570;-74
2023/12/11 08:39:04;;;;;;;51.83;19.35;;;;;;;3.62;100.00;97680.50;5098435;27;20568;-74
2023/12/11 08:41:29;;;;;;;57.00;19.27;;;;;;;3.69;100.00;97667.03;5129067;27;20084;-74
2023/12/11 08:43:55;;;;;;;45.45;17.77;;;;;;;4.07;100.00;97672.81;5115111;27;20109;-74
2023/12/11 08:46:22;;;;;;;55.58;18.08;;;;;;;3.70;100.00;97663.47;5113150;27;20034;-74
2023/12/11 08:48:48;;;;;;;49.72;18.15;;;;;;;3.57;100.00;97651.56;5105258;27;20397;-75
2023/12/11 08:51:17;;;;;;;40.35;17.05;;;;;;;3.68;100.00;97633.59;5113379;27;20031;-74
2023/12/11 08:53:43;;;;;;;43.50;16.15;;;;;;;4.27;100.00;97638.59;5097758;27;20050;-75
2023/12/11 08:56:09;;;;;;;46.58;18.33;;;;;;;4.72;100.00;97638.69;5099654;28;20470;-75
2023/12/11 08:58:34;;;;;;;39.00;15.93;;;;;;;5.03;100.00;97633.09;5109284;28;20058;-73
2023/12/11 09:01:00;;;;;;;38.53;14.45;;;;;;;5.03;100.00;97633.97;5113059;28;20447;-74
2023/12/11 09:03:27;;;;;;;31.48;15.07;;;;;;;5.67;100.00;97615.47;5096315;28;20048;-75
2023/12/11 09:05:53;;;;;;;44.97;15.18;;;;;;;5.78;100.00;97599.97;5101807;28;20037;-75
2023/12/11 09:08:19;;;;;;;31.20;13.70;;;;;;;6.46;100.00;97604.97;5124657;27;20114;-74
2023/12/11 09:10:44;;;;;;;29.17;13.43;;;;;;;6.99;100.00;97579.44;5111478;28;20037;-75
2023/12/11 09:13:10;;;;;;;35.97;14.32;;;;;;;7.83;100.00;97576.19;5092820;28;20031;-74
2023/12/11 09:15:36;;;;;;;32.47;13.82;;;;;;;9.52;100.00;97551.88;5099514;28;20134;-75
2023/12/11 09:18:02;;;;;;;30.42;14.45;;;;;;;11.52;100.00;97545.63;5106104;28;20091;-75
2023/12/11 09:20:27;;;;;;;38.25;15.43;;;;;;;12.69;100.00;97519.69;5112869;28;20027;-74
2023/12/11 09:22:54;;;;;;;31.25;15.60;;;;;;;13.42;100.00;97514.41;5104622;28;20096;-74
2023/12/11 09:25:20;;;;;;;35.15;16.48;;;;;;;14.46;90.20;97498.31;5098728;28;20019;-75
2023/12/11 09:27:45;;;;;;;35.78;17.60;;;;;;;13.61;85.34;97493.25;5099397;28;20023;-75
2023/12/11 09:30:12;;;;;;;40.08;18.17;;;;;;;14.38;92.87;97502.59;5101035;28;20038;-75
2023/12/11 09:32:38;;;;;;;45.65;19.85;;;;;;;14.94;73.83;97473.88;5101802;28;20028;-75
2023/12/11 09:35:04;;;;;;;43.17;20.77;;;;;;;15.02;74.11;97487.56;5116744;27;20087;-75
2023/12/11 09:37:30;;;;;;;47.13;21.13;;;;;;;15.92;68.58;97497.19;5134324;27;20031;-73
2023/12/11 09:39:56;;;;;;;57.53;26.20;;;;;;;15.98;68.33;97483.16;5115318;27;20447;-74
2023/12/11 09:42:21;;;;;;;44.53;23.77;;;;;;;15.45;66.52;97468.75;5116898;27;20107;-74
2023/12/11 09:44:48;;;;;;;46.88;23.67;;;;;;;16.16;64.31;97447.38;5116982;27;20026;-75
2023/12/11 09:47:21;;;;;;;45.78;21.10;;;;;;;16.98;60.74;97444.72;5108360;27;20523;-74
2023/12/11 09:49:47;;;;;;;53.10;23.70;;;;;;;17.43;60.18;97445.09;5098068;28;20486;-74
2023/12/11 09:52:13;;;;;;;47.65;22.52;;;;;;;17.75;56.29;97422.22;5099047;27;20043;-73
2023/12/11 09:54:39;;;;;;;35.50;19.80;;;;;;;17.76;54.65;97414.97;5116039;27;20155;-74
2023/12/11 09:57:08;;;;;;;49.90;28.00;;;;;;;17.42;52.80;97395.56;5115856;27;20475;-74
2023/12/11 09:59:34;;;;;;;37.58;20.90;;;;;;;16.61;55.68;97418.25;5096073;28;20122;-74
2023/12/11 10:01:59;;;;;;;31.08;18.75;;;;;;;16.99;54.70;97392.34;5112882;28;20127;-74
2023/12/11 10:04:25;;;;;;;35.22;18.00;;;;;;;17.94;55.27;97412.41;5108412;27;20030;-75
2023/12/11 10:06:52;;;;;;;33.08;16.20;;;;;;;16.62;54.04;97394.78;5127875;27;20321;-75
2023/12/11 10:09:33;;;;;;;35.55;17.88;;;;;;;17.75;53.98;97413.25;5099272;27;20027;-74
2023/12/11 10:12:03;;;;;;;30.23;14.95;;;;;;;18.35;50.63;97391.25;5104967;27;20043;-74
2023/12/11 10:14:30;;;;;;;27.52;12.95;;;;;;;17.29;52.41;97367.94;5110794;27;20019;-74
2023/12/11 10:16:57;;;;;;;21.15;12.38;;;;;;;17.13;55.95;97362.25;5107605;27;20498;-74
2023/12/11 10:19:32;;;;;;;30.25;14.85;;;;;;;18.60;51.81;97372.66;5133288;27;20467;-74
2023/12/11 10:22:00;;;;;;;31.73;16.17;;;;;;;19.40;48.94;97364.66;5102204;28;20515;-74
2023/12/11 10:24:26;;;;;;;27.85;15.50;;;;;;;19.67;46.97;97347.44;5110617;27;20023;-74
2023/12/11 10:26:59;;;;;;;38.72;17.80;;;;;;;19.85;47.46;97327.41;5131871;27;20024;-75
2023/12/11 10:29:27;;;;;;;26.48;14.52;;;;;;;18.89;49.57;97355.25;5096120;28;20012;-75
2023/12/11 10:32:00;;;;;;;24.77;14.23;;;;;;;19.27;48.46;97345.16;5097110;27;20067;-76
2023/12/11 10:34:45;;;;;;;23.90;13.13;;;;;;;20.01;48.29;97367.41;5103949;28;20035;-74
2023/12/11 10:37:15;;;;;;;39.85;15.75;;;;;;;21.04;46.40;97364.66;5103919;27;20027;-75
2023/12/11 10:39:52;;;;;;;22.42;13.82;;;;;;;19.27;47.09;97361.44;5112120;27;20516;-76
2023/12/11 10:42:18;;;;;;;28.95;14.00;;;;;;;18.71;49.82;97359.75;5105520;28;20412;-74
2023/12/11 10:44:43;;;;;;;22.90;12.93;;;;;;;18.87;49.94;97375.38;5094293;28;20023;-75
2023/12/11 10:47:09;;;;;;;20.35;12.82;;;;;;;19.49;49.89;97350.19;5095003;28;20061;-75
2023/12/11 10:49:36;;;;;;;24.67;13.43;;;;;;;19.59;48.39;97359.09;5112207;28;20118;-75
2023/12/11 10:52:02;;;;;;;20.60;11.98;;;;;;;18.50;50.42;97359.16;5102891;27;20023;-75
2023/12/11 10:54:29;;;;;;;23.80;11.52;;;;;;;19.29;48.94;97352.13;5118714;27;20415;-76
2023/12/11 10:56:56;;;;;;;16.40;9.82;;;;;;;18.95;49.28;97357.34;5111958;27;20104;-76
2023/12/11 10:59:22;;;;;;;18.40;10.68;;;;;;;17.77;50.31;97352.63;5114065;27;20023;-78
2023/12/11 11:01:49;;;;;;;16.92;9.77;;;;;;;19.50;48.40;97357.31;5115922;27;20502;-77
2023/12/11 11:04:16;;;;;;;21.20;10.35;;;;;;;20.65;46.03;97352.56;5106999;27;20037;-77
2023/12/11 11:07:05;;;;;;;19.65;10.93;;;;;;;20.39;46.12;97353.47;5132857;27;20111;-73
2023/12/11 11:09:36;;;;;;;21.80;12.35;;;;;;;21.21;44.40;97350.13;5119483;27;20027;-74
2023/12/11 11:12:08;;;;;;;19.80;11.30;;;;;;;22.24;41.87;97327.72;5103310;27;20023;-75
2023/12/11 11:14:53;;;;;;;21.52;10.93;;;;;;;22.89;40.35;97325.69;5111499;28;20444;-74
2023/12/11 11:17:19;;;;;;;22.73;10.15;;;;;;;21.84;40.77;97323.13;5129638;27;20011;-76